sensor_id;sensor_type;location;lat;lon;timestamp;P1;durP1;ratioP1;P2;durP2;ratioP2
41635;SDS011;27623;51.966;4.602;2023-04-29T00:00:42;24.25;;;12.18;;
41635;SDS011;27623;51.966;4.602;2023-04-29T00:03:08;22.65;;;12.10;;
41635;SDS011;27623;51.966;4.602;2023-04-29T00:05:33;25.98;;;12.10;;
41635;SDS011;27623;51.966;4.602;2023-04-29T00:08:01;26.08;;;12.77;;
41635;SDS011;27623;51.966;4.602;2023-04-29T00:10:26;28.45;;;13.27;;
41635;SDS011;27623;51.966;4.602;2023-04-29T00:12:51;26.20;;;13.43;;
41635;SDS011;27623;51.966;4.602;2023-04-29T00:15:17;25.45;;;14.30;;
41635;SDS011;27623;51.966;4.602;2023-04-29T00:17:42;28.48;;;13.98;;
41635;SDS011;27623;51.966;4.602;2023-04-29T00:20:09;25.52;;;13.18;;
41635;SDS011;27623;51.966;4.602;2023-04-29T00:22:35;29.08;;;13.65;;
41635;SDS011;27623;51.966;4.602;2023-04-29T00:25:01;24.73;;;13.10;;
41635;SDS011;27623;51.966;4.602;2023-04-29T00:27:26;32.60;;;13.80;;
41635;SDS011;27623;51.966;4.602;2023-04-29T00:29:52;28.27;;;13.65;;
41635;SDS011;27623;51.966;4.602;2023-04-29T00:32:17;32.60;;;13.93;;
41635;SDS011;27623;51.966;4.602;2023-04-29T00:34:43;29.20;;;12.45;;
41635;SDS011;27623;51.966;4.602;2023-04-29T00:37:10;24.48;;;13.50;;
41635;SDS011;27623;51.966;4.602;2023-04-29T00:39:36;25.05;;;13.02;;
41635;SDS011;27623;51.966;4.602;2023-04-29T00:42:01;31.27;;;14.75;;
41635;SDS011;27623;51.966;4.602;2023-04-29T00:44:27;29.38;;;14.73;;
41635;SDS011;27623;51.966;4.602;2023-04-29T00:46:53;27.45;;;14.48;;
41635;SDS011;27623;51.966;4.602;2023-04-29T00:49:18;24.58;;;13.25;;
41635;SDS011;27623;51.966;4.602;2023-04-29T00:51:44;28.88;;;13.75;;
41635;SDS011;27623;51.966;4.602;2023-04-29T00:54:09;26.42;;;13.93;;
41635;SDS011;27623;51.966;4.602;2023-04-29T00:56:35;28.55;;;13.77;;
41635;SDS011;27623;51.966;4.602;2023-04-29T00:59:05;28.42;;;14.63;;
41635;SDS011;27623;51.966;4.602;2023-04-29T01:01:33;23.65;;;13.13;;
41635;SDS011;27623;51.966;4.602;2023-04-29T01:03:59;33.17;;;13.95;;
41635;SDS011;27623;51.966;4.602;2023-04-29T01:11:41;31.02;;;14.25;;
41635;SDS011;27623;51.966;4.602;2023-04-29T01:14:30;28.00;;;13.98;;
41635;SDS011;27623;51.966;4.602;2023-04-29T01:16:58;26.23;;;13.45;;
41635;SDS011;27623;51.966;4.602;2023-04-29T01:22:08;29.92;;;14.52;;
41635;SDS011;27623;51.966;4.602;2023-04-29T01:24:33;25.73;;;13.20;;
41635;SDS011;27623;51.966;4.602;2023-04-29T01:27:01;24.70;;;12.77;;
41635;SDS011;27623;51.966;4.602;2023-04-29T01:32:42;22.25;;;13.10;;
41635;SDS011;27623;51.966;4.602;2023-04-29T01:35:33;30.00;;;14.65;;
41635;SDS011;27623;51.966;4.602;2023-04-29T01:40:50;26.13;;;13.88;;
41635;SDS011;27623;51.966;4.602;2023-04-29T01:43:23;27.33;;;13.63;;
41635;SDS011;27623;51.966;4.602;2023-04-29T01:45:54;29.10;;;13.48;;
41635;SDS011;27623;51.966;4.602;2023-04-29T01:48:21;26.10;;;13.48;;
41635;SDS011;27623;51.966;4.602;2023-04-29T01:50:48;26.05;;;14.27;;
41635;SDS011;27623;51.966;4.602;2023-04-29T01:53:15;27.60;;;14.65;;
41635;SDS011;27623;51.966;4.602;2023-04-29T01:55:41;23.27;;;12.95;;
41635;SDS011;27623;51.966;4.602;2023-04-29T01:58:08;28.13;;;13.23;;
41635;SDS011;27623;51.966;4.602;2023-04-29T02:00:37;24.10;;;14.00;;
41635;SDS011;27623;51.966;4.602;2023-04-29T02:03:02;28.60;;;14.82;;
41635;SDS011;27623;51.966;4.602;2023-04-29T02:05:28;27.42;;;13.35;;
41635;SDS011;27623;51.966;4.602;2023-04-29T02:07:58;22.67;;;13.77;;
41635;SDS011;27623;51.966;4.602;2023-04-29T02:10:24;27.73;;;13.85;;
41635;SDS011;27623;51.966;4.602;2023-04-29T02:12:50;23.27;;;13.32;;
41635;SDS011;27623;51.966;4.602;2023-04-29T02:15:15;25.33;;;13.13;;
41635;SDS011;27623;51.966;4.602;2023-04-29T02:17:43;27.20;;;13.60;;
41635;SDS011;27623;51.966;4.602;2023-04-29T02:20:09;24.00;;;14.02;;
41635;SDS011;27623;51.966;4.602;2023-04-29T02:22:34;25.95;;;13.98;;
41635;SDS011;27623;51.966;4.602;2023-04-29T02:25:02;26.67;;;13.00;;
41635;SDS011;27623;51.966;4.602;2023-04-29T02:27:28;27.67;;;13.02;;
41635;SDS011;27623;51.966;4.602;2023-04-29T02:29:53;24.70;;;13.05;;
41635;SDS011;27623;51.966;4.602;2023-04-29T02:32:18;31.77;;;13.25;;
41635;SDS011;27623;51.966;4.602;2023-04-29T02:34:44;28.38;;;12.68;;
41635;SDS011;27623;51.966;4.602;2023-04-29T02:37:10;23.38;;;12.77;;
41635;SDS011;27623;51.966;4.602;2023-04-29T02:39:36;24.48;;;12.07;;
41635;SDS011;27623;51.966;4.602;2023-04-29T02:42:01;25.10;;;13.52;;
41635;SDS011;27623;51.966;4.602;2023-04-29T02:44:27;24.60;;;12.88;;
41635;SDS011;27623;51.966;4.602;2023-04-29T02:46:55;22.00;;;11.57;;
41635;SDS011;27623;51.966;4.602;2023-04-29T02:49:21;24.50;;;12.23;;
41635;SDS011;27623;51.966;4.602;2023-04-29T02:51:47;23.70;;;11.13;;
41635;SDS011;27623;51.966;4.602;2023-04-29T02:54:14;20.73;;;12.27;;
41635;SDS011;27623;51.966;4.602;2023-04-29T02:56:40;22.33;;;11.57;;
41635;SDS011;27623;51.966;4.602;2023-04-29T02:59:06;23.00;;;11.50;;
41635;SDS011;27623;51.966;4.602;2023-04-29T03:01:31;27.00;;;11.80;;
41635;SDS011;27623;51.966;4.602;2023-04-29T03:03:56;21.70;;;11.95;;
41635;SDS011;27623;51.966;4.602;2023-04-29T03:06:22;22.50;;;12.80;;
41635;SDS011;27623;51.966;4.602;2023-04-29T03:08:47;25.27;;;12.43;;
41635;SDS011;27623;51.966;4.602;2023-04-29T03:11:13;19.27;;;11.45;;
41635;SDS011;27623;51.966;4.602;2023-04-29T03:13:38;26.38;;;13.40;;
41635;SDS011;27623;51.966;4.602;2023-04-29T03:16:03;21.30;;;11.63;;
41635;SDS011;27623;51.966;4.602;2023-04-29T03:18:30;25.80;;;12.82;;
41635;SDS011;27623;51.966;4.602;2023-04-29T03:20:56;23.58;;;12.07;;
41635;SDS011;27623;51.966;4.602;2023-04-29T03:23:21;21.00;;;12.07;;
41635;SDS011;27623;51.966;4.602;2023-04-29T03:25:47;25.45;;;12.32;;
41635;SDS011;27623;51.966;4.602;2023-04-29T03:28:12;25.05;;;12.05;;
41635;SDS011;27623;51.966;4.602;2023-04-29T03:30:38;21.70;;;11.13;;
41635;SDS011;27623;51.966;4.602;2023-04-29T03:33:04;25.88;;;11.80;;
41635;SDS011;27623;51.966;4.602;2023-04-29T03:35:32;21.90;;;11.60;;
41635;SDS011;27623;51.966;4.602;2023-04-29T03:37:57;21.13;;;12.30;;
41635;SDS011;27623;51.966;4.602;2023-04-29T03:40:23;23.42;;;12.18;;
41635;SDS011;27623;51.966;4.602;2023-04-29T03:42:48;25.20;;;12.38;;
41635;SDS011;27623;51.966;4.602;2023-04-29T03:45:16;22.05;;;12.25;;
41635;SDS011;27623;51.966;4.602;2023-04-29T03:47:42;28.48;;;13.02;;
41635;SDS011;27623;51.966;4.602;2023-04-29T03:50:07;23.75;;;13.57;;
41635;SDS011;27623;51.966;4.602;2023-04-29T03:52:35;25.63;;;13.05;;
41635;SDS011;27623;51.966;4.602;2023-04-29T03:55:01;23.52;;;12.55;;
41635;SDS011;27623;51.966;4.602;2023-04-29T03:57:29;22.77;;;12.32;;
41635;SDS011;27623;51.966;4.602;2023-04-29T03:59:55;24.35;;;12.80;;
41635;SDS011;27623;51.966;4.602;2023-04-29T04:02:20;23.30;;;12.70;;
41635;SDS011;27623;51.966;4.602;2023-04-29T04:04:45;23.85;;;13.05;;
41635;SDS011;27623;51.966;4.602;2023-04-29T04:07:11;27.45;;;12.82;;
41635;SDS011;27623;51.966;4.602;2023-04-29T04:09:36;28.75;;;12.85;;
41635;SDS011;27623;51.966;4.602;2023-04-29T04:12:02;28.10;;;13.57;;
41635;SDS011;27623;51.966;4.602;2023-04-29T04:14:28;23.83;;;12.50;;
41635;SDS011;27623;51.966;4.602;2023-04-29T04:16:54;22.80;;;12.00;;
41635;SDS011;27623;51.966;4.602;2023-04-29T04:19:19;22.73;;;12.60;;
41635;SDS011;27623;51.966;4.602;2023-04-29T04:21:45;28.50;;;13.18;;
41635;SDS011;27623;51.966;4.602;2023-04-29T04:24:10;20.58;;;12.52;;
41635;SDS011;27623;51.966;4.602;2023-04-29T04:26:35;22.00;;;12.85;;
41635;SDS011;27623;51.966;4.602;2023-04-29T04:29:01;25.75;;;13.57;;
41635;SDS011;27623;51.966;4.602;2023-04-29T04:31:27;25.98;;;13.05;;
41635;SDS011;27623;51.966;4.602;2023-04-29T04:33:52;21.25;;;12.60;;
41635;SDS011;27623;51.966;4.602;2023-04-29T04:36:20;25.77;;;12.07;;
41635;SDS011;27623;51.966;4.602;2023-04-29T04:38:48;27.60;;;13.30;;
41635;SDS011;27623;51.966;4.602;2023-04-29T04:41:13;22.73;;;12.18;;
41635;SDS011;27623;51.966;4.602;2023-04-29T04:43:41;23.70;;;11.63;;
41635;SDS011;27623;51.966;4.602;2023-04-29T04:46:12;23.48;;;11.88;;
41635;SDS011;27623;51.966;4.602;2023-04-29T04:48:39;23.98;;;12.10;;
41635;SDS011;27623;51.966;4.602;2023-04-29T04:51:11;26.38;;;12.80;;
41635;SDS011;27623;51.966;4.602;2023-04-29T04:53:37;26.83;;;12.90;;
41635;SDS011;27623;51.966;4.602;2023-04-29T04:56:04;25.05;;;12.43;;
41635;SDS011;27623;51.966;4.602;2023-04-29T04:58:31;25.30;;;12.63;;
41635;SDS011;27623;51.966;4.602;2023-04-29T05:00:57;29.83;;;12.70;;
41635;SDS011;27623;51.966;4.602;2023-04-29T05:03:23;22.15;;;12.73;;
41635;SDS011;27623;51.966;4.602;2023-04-29T05:05:57;32.72;;;13.73;;
41635;SDS011;27623;51.966;4.602;2023-04-29T05:08:24;28.63;;;13.50;;
41635;SDS011;27623;51.966;4.602;2023-04-29T05:10:50;23.58;;;12.52;;
41635;SDS011;27623;51.966;4.602;2023-04-29T05:13:16;30.27;;;12.85;;
41635;SDS011;27623;51.966;4.602;2023-04-29T05:15:41;33.40;;;14.02;;
41635;SDS011;27623;51.966;4.602;2023-04-29T05:18:07;31.02;;;12.82;;
41635;SDS011;27623;51.966;4.602;2023-04-29T05:20:32;28.00;;;12.93;;
41635;SDS011;27623;51.966;4.602;2023-04-29T05:22:57;32.45;;;13.77;;
41635;SDS011;27623;51.966;4.602;2023-04-29T05:25:23;27.92;;;13.95;;
41635;SDS011;27623;51.966;4.602;2023-04-29T05:27:48;28.67;;;13.90;;
41635;SDS011;27623;51.966;4.602;2023-04-29T05:30:14;28.65;;;13.82;;
41635;SDS011;27623;51.966;4.602;2023-04-29T05:32:40;35.88;;;14.48;;
41635;SDS011;27623;51.966;4.602;2023-04-29T05:35:05;28.77;;;14.32;;
41635;SDS011;27623;51.966;4.602;2023-04-29T05:37:31;34.80;;;13.52;;
41635;SDS011;27623;51.966;4.602;2023-04-29T05:39:56;24.83;;;13.63;;
41635;SDS011;27623;51.966;4.602;2023-04-29T05:42:22;31.23;;;14.80;;
41635;SDS011;27623;51.966;4.602;2023-04-29T05:44:48;33.97;;;15.82;;
41635;SDS011;27623;51.966;4.602;2023-04-29T05:47:14;30.20;;;14.95;;
41635;SDS011;27623;51.966;4.602;2023-04-29T05:49:39;29.88;;;14.18;;
41635;SDS011;27623;51.966;4.602;2023-04-29T05:52:05;37.10;;;14.85;;
41635;SDS011;27623;51.966;4.602;2023-04-29T05:54:31;24.92;;;13.93;;
41635;SDS011;27623;51.966;4.602;2023-04-29T05:56:59;28.60;;;15.07;;
41635;SDS011;27623;51.966;4.602;2023-04-29T05:59:31;33.17;;;13.68;;
41635;SDS011;27623;51.966;4.602;2023-04-29T06:01:59;38.42;;;15.88;;
41635;SDS011;27623;51.966;4.602;2023-04-29T06:04:25;28.77;;;13.80;;
41635;SDS011;27623;51.966;4.602;2023-04-29T06:06:51;28.65;;;14.60;;
41635;SDS011;27623;51.966;4.602;2023-04-29T06:09:18;26.70;;;13.90;;
41635;SDS011;27623;51.966;4.602;2023-04-29T06:11:44;28.52;;;14.77;;
41635;SDS011;27623;51.966;4.602;2023-04-29T06:14:12;25.00;;;13.48;;
41635;SDS011;27623;51.966;4.602;2023-04-29T06:16:38;29.30;;;13.60;;
41635;SDS011;27623;51.966;4.602;2023-04-29T06:19:04;29.95;;;13.77;;
41635;SDS011;27623;51.966;4.602;2023-04-29T06:21:30;25.15;;;11.82;;
41635;SDS011;27623;51.966;4.602;2023-04-29T06:23:56;25.83;;;12.98;;
41635;SDS011;27623;51.966;4.602;2023-04-29T06:26:21;24.77;;;12.60;;
41635;SDS011;27623;51.966;4.602;2023-04-29T06:28:47;26.00;;;12.35;;
41635;SDS011;27623;51.966;4.602;2023-04-29T06:31:12;21.75;;;12.65;;
41635;SDS011;27623;51.966;4.602;2023-04-29T06:33:38;21.08;;;11.20;;
41635;SDS011;27623;51.966;4.602;2023-04-29T06:36:06;24.83;;;12.63;;
41635;SDS011;27623;51.966;4.602;2023-04-29T06:38:32;20.20;;;11.27;;
41635;SDS011;27623;51.966;4.602;2023-04-29T06:40:57;21.90;;;11.57;;
41635;SDS011;27623;51.966;4.602;2023-04-29T06:43:28;27.63;;;11.38;;
41635;SDS011;27623;51.966;4.602;2023-04-29T06:45:53;23.70;;;11.65;;
41635;SDS011;27623;51.966;4.602;2023-04-29T06:48:19;21.60;;;10.63;;
41635;SDS011;27623;51.966;4.602;2023-04-29T06:50:51;17.65;;;10.30;;
41635;SDS011;27623;51.966;4.602;2023-04-29T06:53:18;19.27;;;10.82;;
41635;SDS011;27623;51.966;4.602;2023-04-29T06:55:46;17.42;;;10.05;;
41635;SDS011;27623;51.966;4.602;2023-04-29T06:58:12;23.33;;;10.90;;
41635;SDS011;27623;51.966;4.602;2023-04-29T07:00:38;18.73;;;9.68;;
41635;SDS011;27623;51.966;4.602;2023-04-29T07:03:03;21.60;;;10.02;;
41635;SDS011;27623;51.966;4.602;2023-04-29T07:05:29;19.70;;;9.18;;
41635;SDS011;27623;51.966;4.602;2023-04-29T07:07:57;19.70;;;9.82;;
41635;SDS011;27623;51.966;4.602;2023-04-29T07:10:22;18.45;;;8.80;;
41635;SDS011;27623;51.966;4.602;2023-04-29T07:12:48;18.00;;;8.60;;
41635;SDS011;27623;51.966;4.602;2023-04-29T07:15:15;17.80;;;9.10;;
41635;SDS011;27623;51.966;4.602;2023-04-29T07:17:41;18.13;;;9.48;;
41635;SDS011;27623;51.966;4.602;2023-04-29T07:20:06;16.23;;;8.25;;
41635;SDS011;27623;51.966;4.602;2023-04-29T07:22:32;16.70;;;8.13;;
41635;SDS011;27623;51.966;4.602;2023-04-29T07:24:58;16.85;;;9.00;;
41635;SDS011;27623;51.966;4.602;2023-04-29T07:27:23;15.15;;;8.02;;
41635;SDS011;27623;51.966;4.602;2023-04-29T07:29:48;14.18;;;7.63;;
41635;SDS011;27623;51.966;4.602;2023-04-29T07:32:14;17.75;;;8.15;;
41635;SDS011;27623;51.966;4.602;2023-04-29T07:34:40;14.30;;;7.90;;
41635;SDS011;27623;51.966;4.602;2023-04-29T07:37:05;17.30;;;8.85;;
41635;SDS011;27623;51.966;4.602;2023-04-29T07:39:31;17.10;;;7.65;;
41635;SDS011;27623;51.966;4.602;2023-04-29T07:41:56;17.85;;;8.07;;
41635;SDS011;27623;51.966;4.602;2023-04-29T07:44:22;13.60;;;7.32;;
41635;SDS011;27623;51.966;4.602;2023-04-29T07:46:47;13.10;;;7.10;;
41635;SDS011;27623;51.966;4.602;2023-04-29T07:49:13;14.63;;;7.57;;
41635;SDS011;27623;51.966;4.602;2023-04-29T07:51:42;16.98;;;8.30;;
41635;SDS011;27623;51.966;4.602;2023-04-29T07:54:10;14.30;;;7.20;;
41635;SDS011;27623;51.966;4.602;2023-04-29T07:56:36;17.40;;;7.72;;
41635;SDS011;27623;51.966;4.602;2023-04-29T07:59:01;16.20;;;7.47;;
41635;SDS011;27623;51.966;4.602;2023-04-29T08:01:26;14.32;;;6.65;;
41635;SDS011;27623;51.966;4.602;2023-04-29T08:03:52;12.27;;;6.72;;
41635;SDS011;27623;51.966;4.602;2023-04-29T08:06:18;14.48;;;6.50;;
41635;SDS011;27623;51.966;4.602;2023-04-29T08:08:46;14.95;;;6.95;;
41635;SDS011;27623;51.966;4.602;2023-04-29T08:11:15;13.32;;;6.72;;
41635;SDS011;27623;51.966;4.602;2023-04-29T08:13:44;13.77;;;5.97;;
41635;SDS011;27623;51.966;4.602;2023-04-29T08:16:12;9.98;;;5.50;;
41635;SDS011;27623;51.966;4.602;2023-04-29T08:18:38;12.30;;;6.57;;
41635;SDS011;27623;51.966;4.602;2023-04-29T08:21:03;9.77;;;5.78;;
41635;SDS011;27623;51.966;4.602;2023-04-29T08:23:29;9.95;;;5.50;;
41635;SDS011;27623;51.966;4.602;2023-04-29T08:25:57;12.10;;;6.13;;
41635;SDS011;27623;51.966;4.602;2023-04-29T08:28:23;10.55;;;5.97;;
41635;SDS011;27623;51.966;4.602;2023-04-29T08:30:49;12.73;;;5.80;;
41635;SDS011;27623;51.966;4.602;2023-04-29T08:33:14;13.40;;;5.45;;
41635;SDS011;27623;51.966;4.602;2023-04-29T08:35:40;9.18;;;5.28;;
41635;SDS011;27623;51.966;4.602;2023-04-29T08:38:08;8.77;;;5.15;;
41635;SDS011;27623;51.966;4.602;2023-04-29T08:40:43;8.68;;;4.65;;
41635;SDS011;27623;51.966;4.602;2023-04-29T08:43:11;8.77;;;4.60;;
41635;SDS011;27623;51.966;4.602;2023-04-29T08:45:38;11.05;;;4.30;;
41635;SDS011;27623;51.966;4.602;2023-04-29T08:48:05;9.93;;;5.05;;
41635;SDS011;27623;51.966;4.602;2023-04-29T08:50:32;10.25;;;5.72;;
41635;SDS011;27623;51.966;4.602;2023-04-29T08:53:03;14.48;;;5.75;;
41635;SDS011;27623;51.966;4.602;2023-04-29T08:55:32;13.15;;;5.95;;
41635;SDS011;27623;51.966;4.602;2023-04-29T08:58:05;10.88;;;5.38;;
41635;SDS011;27623;51.966;4.602;2023-04-29T09:00:31;10.65;;;5.45;;
41635;SDS011;27623;51.966;4.602;2023-04-29T09:03:13;9.10;;;5.53;;
41635;SDS011;27623;51.966;4.602;2023-04-29T09:05:39;14.23;;;6.40;;
41635;SDS011;27623;51.966;4.602;2023-04-29T09:08:07;12.52;;;5.32;;
41635;SDS011;27623;51.966;4.602;2023-04-29T09:10:34;12.57;;;5.30;;
41635;SDS011;27623;51.966;4.602;2023-04-29T09:13:03;10.48;;;5.05;;
41635;SDS011;27623;51.966;4.602;2023-04-29T09:15:28;10.93;;;5.22;;
41635;SDS011;27623;51.966;4.602;2023-04-29T09:18:02;9.90;;;5.40;;
41635;SDS011;27623;51.966;4.602;2023-04-29T09:20:27;12.70;;;5.88;;
41635;SDS011;27623;51.966;4.602;2023-04-29T09:22:57;7.88;;;4.93;;
41635;SDS011;27623;51.966;4.602;2023-04-29T09:25:24;12.55;;;5.88;;
41635;SDS011;27623;51.966;4.602;2023-04-29T09:27:51;9.73;;;5.35;;
41635;SDS011;27623;51.966;4.602;2023-04-29T09:30:17;9.15;;;5.45;;
41635;SDS011;27623;51.966;4.602;2023-04-29T09:32:43;10.43;;;5.25;;
41635;SDS011;27623;51.966;4.602;2023-04-29T09:37:47;9.60;;;5.20;;
41635;SDS011;27623;51.966;4.602;2023-04-29T09:40:32;13.25;;;5.72;;
41635;SDS011;27623;51.966;4.602;2023-04-29T09:42:58;12.35;;;5.63;;
41635;SDS011;27623;51.966;4.602;2023-04-29T09:45:34;10.90;;;5.80;;
41635;SDS011;27623;51.966;4.602;2023-04-29T09:48:05;10.30;;;5.50;;
41635;SDS011;27623;51.966;4.602;2023-04-29T09:50:32;10.27;;;5.00;;
41635;SDS011;27623;51.966;4.602;2023-04-29T09:52:58;12.50;;;5.00;;
41635;SDS011;27623;51.966;4.602;2023-04-29T09:55:24;13.13;;;5.85;;
41635;SDS011;27623;51.966;4.602;2023-04-29T09:57:50;9.25;;;5.32;;
41635;SDS011;27623;51.966;4.602;2023-04-29T10:00:16;10.73;;;5.30;;
41635;SDS011;27623;51.966;4.602;2023-04-29T10:02:44;11.10;;;5.72;;
41635;SDS011;27623;51.966;4.602;2023-04-29T10:05:16;13.13;;;6.00;;
41635;SDS011;27623;51.966;4.602;2023-04-29T10:07:43;13.98;;;5.40;;
41635;SDS011;27623;51.966;4.602;2023-04-29T10:10:11;11.18;;;5.60;;
41635;SDS011;27623;51.966;4.602;2023-04-29T10:12:38;11.20;;;5.50;;
41635;SDS011;27623;51.966;4.602;2023-04-29T10:17:53;12.43;;;5.07;;
41635;SDS011;27623;51.966;4.602;2023-04-29T10:20:23;9.85;;;5.28;;
41635;SDS011;27623;51.966;4.602;2023-04-29T10:22:53;8.05;;;5.07;;
41635;SDS011;27623;51.966;4.602;2023-04-29T10:25:20;9.65;;;5.47;;
41635;SDS011;27623;51.966;4.602;2023-04-29T10:27:49;11.73;;;5.45;;
41635;SDS011;27623;51.966;4.602;2023-04-29T10:30:18;10.77;;;5.38;;
41635;SDS011;27623;51.966;4.602;2023-04-29T10:32:45;11.27;;;5.60;;
41635;SDS011;27623;51.966;4.602;2023-04-29T10:35:14;10.65;;;5.15;;
41635;SDS011;27623;51.966;4.602;2023-04-29T10:37:44;10.10;;;5.20;;
41635;SDS011;27623;51.966;4.602;2023-04-29T10:42:45;14.13;;;5.55;;
41635;SDS011;27623;51.966;4.602;2023-04-29T10:53:00;8.20;;;4.95;;
41635;SDS011;27623;51.966;4.602;2023-04-29T10:55:27;8.15;;;4.85;;
41635;SDS011;27623;51.966;4.602;2023-04-29T10:57:54;8.88;;;5.22;;
41635;SDS011;27623;51.966;4.602;2023-04-29T11:00:21;12.57;;;5.90;;
41635;SDS011;27623;51.966;4.602;2023-04-29T11:03:00;9.05;;;5.55;;
41635;SDS011;27623;51.966;4.602;2023-04-29T11:10:53;9.80;;;5.60;;
41635;SDS011;27623;51.966;4.602;2023-04-29T11:13:29;8.77;;;5.00;;
41635;SDS011;27623;51.966;4.602;2023-04-29T11:18:29;8.50;;;4.78;;
41635;SDS011;27623;51.966;4.602;2023-04-29T11:23:33;7.68;;;4.53;;
41635;SDS011;27623;51.966;4.602;2023-04-29T11:26:02;11.10;;;6.13;;
41635;SDS011;27623;51.966;4.602;2023-04-29T11:28:32;9.13;;;5.15;;
41635;SDS011;27623;51.966;4.602;2023-04-29T11:30:58;8.55;;;5.28;;
41635;SDS011;27623;51.966;4.602;2023-04-29T11:33:24;8.98;;;5.20;;
41635;SDS011;27623;51.966;4.602;2023-04-29T11:35:53;7.85;;;4.43;;
41635;SDS011;27623;51.966;4.602;2023-04-29T11:38:23;9.40;;;5.28;;
41635;SDS011;27623;51.966;4.602;2023-04-29T11:40:49;9.43;;;4.85;;
41635;SDS011;27623;51.966;4.602;2023-04-29T11:43:16;6.10;;;3.67;;
41635;SDS011;27623;51.966;4.602;2023-04-29T11:45:43;6.35;;;3.40;;
41635;SDS011;27623;51.966;4.602;2023-04-29T11:48:16;7.93;;;4.30;;
41635;SDS011;27623;51.966;4.602;2023-04-29T11:50:45;6.07;;;3.90;;
41635;SDS011;27623;51.966;4.602;2023-04-29T11:53:14;8.00;;;4.28;;
41635;SDS011;27623;51.966;4.602;2023-04-29T11:55:43;7.35;;;4.03;;
41635;SDS011;27623;51.966;4.602;2023-04-29T11:58:15;7.78;;;4.90;;
41635;SDS011;27623;51.966;4.602;2023-04-29T12:00:42;9.43;;;4.93;;
41635;SDS011;27623;51.966;4.602;2023-04-29T12:03:18;7.40;;;4.22;;
41635;SDS011;27623;51.966;4.602;2023-04-29T12:05:52;8.20;;;4.93;;
41635;SDS011;27623;51.966;4.602;2023-04-29T12:08:22;7.00;;;4.05;;
41635;SDS011;27623;51.966;4.602;2023-04-29T12:10:48;9.52;;;4.70;;
41635;SDS011;27623;51.966;4.602;2023-04-29T12:13:14;9.05;;;5.20;;
41635;SDS011;27623;51.966;4.602;2023-04-29T12:15:41;7.70;;;4.85;;
41635;SDS011;27623;51.966;4.602;2023-04-29T12:18:08;8.75;;;4.63;;
41635;SDS011;27623;51.966;4.602;2023-04-29T12:20:34;11.73;;;4.90;;
41635;SDS011;27623;51.966;4.602;2023-04-29T12:23:10;8.55;;;4.63;;
41635;SDS011;27623;51.966;4.602;2023-04-29T12:25:39;9.45;;;4.40;;
41635;SDS011;27623;51.966;4.602;2023-04-29T12:28:12;7.65;;;3.92;;
41635;SDS011;27623;51.966;4.602;2023-04-29T12:30:40;11.75;;;5.05;;
41635;SDS011;27623;51.966;4.602;2023-04-29T12:33:08;9.48;;;5.30;;
41635;SDS011;27623;51.966;4.602;2023-04-29T12:35:33;8.27;;;4.47;;
41635;SDS011;27623;51.966;4.602;2023-04-29T12:38:00;8.60;;;5.00;;
41635;SDS011;27623;51.966;4.602;2023-04-29T12:40:26;11.60;;;4.45;;
41635;SDS011;27623;51.966;4.602;2023-04-29T12:42:52;11.65;;;5.07;;
41635;SDS011;27623;51.966;4.602;2023-04-29T12:45:33;8.80;;;4.88;;
41635;SDS011;27623;51.966;4.602;2023-04-29T12:47:59;10.30;;;5.10;;
41635;SDS011;27623;51.966;4.602;2023-04-29T12:50:35;9.55;;;5.55;;
41635;SDS011;27623;51.966;4.602;2023-04-29T12:53:05;9.68;;;5.60;;
41635;SDS011;27623;51.966;4.602;2023-04-29T12:55:32;8.23;;;5.03;;
41635;SDS011;27623;51.966;4.602;2023-04-29T12:57:59;10.23;;;5.43;;
41635;SDS011;27623;51.966;4.602;2023-04-29T13:00:26;9.30;;;5.43;;
41635;SDS011;27623;51.966;4.602;2023-04-29T13:02:52;13.13;;;5.93;;
41635;SDS011;27623;51.966;4.602;2023-04-29T13:05:17;12.65;;;6.40;;
41635;SDS011;27623;51.966;4.602;2023-04-29T13:07:45;9.82;;;5.55;;
41635;SDS011;27623;51.966;4.602;2023-04-29T13:10:11;13.80;;;5.72;;
41635;SDS011;27623;51.966;4.602;2023-04-29T13:12:37;10.20;;;5.53;;
41635;SDS011;27623;51.966;4.602;2023-04-29T13:15:03;14.57;;;6.05;;
41635;SDS011;27623;51.966;4.602;2023-04-29T13:17:30;13.65;;;7.05;;
41635;SDS011;27623;51.966;4.602;2023-04-29T13:19:55;12.68;;;5.57;;
41635;SDS011;27623;51.966;4.602;2023-04-29T13:22:20;11.52;;;6.28;;
41635;SDS011;27623;51.966;4.602;2023-04-29T13:24:48;9.77;;;5.78;;
41635;SDS011;27623;51.966;4.602;2023-04-29T13:27:14;11.50;;;6.22;;
41635;SDS011;27623;51.966;4.602;2023-04-29T13:29:42;10.48;;;6.10;;
41635;SDS011;27623;51.966;4.602;2023-04-29T13:32:12;9.50;;;5.63;;
41635;SDS011;27623;51.966;4.602;2023-04-29T13:34:37;11.48;;;5.40;;
41635;SDS011;27623;51.966;4.602;2023-04-29T13:37:07;11.75;;;5.35;;
41635;SDS011;27623;51.966;4.602;2023-04-29T13:39:32;11.25;;;5.70;;
41635;SDS011;27623;51.966;4.602;2023-04-29T13:41:58;13.00;;;5.85;;
41635;SDS011;27623;51.966;4.602;2023-04-29T13:44:23;11.57;;;5.80;;
41635;SDS011;27623;51.966;4.602;2023-04-29T13:46:49;11.75;;;5.93;;
41635;SDS011;27623;51.966;4.602;2023-04-29T13:49:15;9.23;;;5.53;;
41635;SDS011;27623;51.966;4.602;2023-04-29T13:51:41;10.93;;;4.95;;
41635;SDS011;27623;51.966;4.602;2023-04-29T13:54:06;13.23;;;5.57;;
41635;SDS011;27623;51.966;4.602;2023-04-29T13:56:34;12.73;;;5.90;;
41635;SDS011;27623;51.966;4.602;2023-04-29T13:58:59;12.73;;;4.90;;
41635;SDS011;27623;51.966;4.602;2023-04-29T14:01:25;11.30;;;5.53;;
41635;SDS011;27623;51.966;4.602;2023-04-29T14:03:51;12.95;;;5.10;;
41635;SDS011;27623;51.966;4.602;2023-04-29T14:06:19;13.15;;;5.70;;
41635;SDS011;27623;51.966;4.602;2023-04-29T14:08:45;12.27;;;5.47;;
41635;SDS011;27623;51.966;4.602;2023-04-29T14:11:12;9.85;;;5.90;;
41635;SDS011;27623;51.966;4.602;2023-04-29T14:13:40;9.27;;;4.57;;
41635;SDS011;27623;51.966;4.602;2023-04-29T14:16:08;11.38;;;4.85;;
41635;SDS011;27623;51.966;4.602;2023-04-29T14:18:33;13.48;;;6.47;;
41635;SDS011;27623;51.966;4.602;2023-04-29T14:20:59;12.05;;;5.97;;
41635;SDS011;27623;51.966;4.602;2023-04-29T14:23:24;9.35;;;5.35;;
41635;SDS011;27623;51.966;4.602;2023-04-29T14:25:50;9.27;;;4.93;;
41635;SDS011;27623;51.966;4.602;2023-04-29T14:28:15;10.90;;;6.00;;
41635;SDS011;27623;51.966;4.602;2023-04-29T14:30:43;8.35;;;5.07;;
41635;SDS011;27623;51.966;4.602;2023-04-29T14:33:08;12.77;;;4.63;;
41635;SDS011;27623;51.966;4.602;2023-04-29T14:35:36;10.80;;;4.95;;
41635;SDS011;27623;51.966;4.602;2023-04-29T14:38:01;9.30;;;5.20;;
41635;SDS011;27623;51.966;4.602;2023-04-29T14:40:27;11.55;;;4.93;;
41635;SDS011;27623;51.966;4.602;2023-04-29T14:42:53;10.00;;;4.72;;
41635;SDS011;27623;51.966;4.602;2023-04-29T14:45:18;9.70;;;3.95;;
41635;SDS011;27623;51.966;4.602;2023-04-29T14:47:43;9.75;;;4.85;;
41635;SDS011;27623;51.966;4.602;2023-04-29T14:50:11;7.90;;;3.92;;
41635;SDS011;27623;51.966;4.602;2023-04-29T14:52:36;10.93;;;3.85;;
41635;SDS011;27623;51.966;4.602;2023-04-29T14:55:02;10.82;;;4.32;;
41635;SDS011;27623;51.966;4.602;2023-04-29T14:57:27;12.00;;;5.18;;
41635;SDS011;27623;51.966;4.602;2023-04-29T14:59:54;9.93;;;4.57;;
41635;SDS011;27623;51.966;4.602;2023-04-29T15:02:20;10.60;;;4.72;;
41635;SDS011;27623;51.966;4.602;2023-04-29T15:04:45;9.77;;;4.18;;
41635;SDS011;27623;51.966;4.602;2023-04-29T15:07:11;10.32;;;5.28;;
41635;SDS011;27623;51.966;4.602;2023-04-29T15:09:37;9.93;;;4.25;;